createdAt,value
2019-03-05T00:00:38.020Z,1.15
2019-03-05T00:03:07.687Z,1.22
2019-03-05T00:05:37.111Z,1.02
2019-03-05T00:08:06.587Z,1.00
2019-03-05T00:10:36.169Z,0.60
2019-03-05T00:13:05.630Z,1.25
2019-03-05T00:15:35.067Z,1.00
2019-03-05T00:18:05.050Z,1.00
2019-03-05T00:20:34.507Z,1.00
2019-03-05T00:23:03.967Z,1.00
2019-03-05T00:25:37.575Z,1.22
2019-03-05T00:28:25.298Z,1.10
2019-03-05T00:31:09.973Z,1.60
2019-03-05T00:36:38.962Z,1.00
2019-03-05T00:39:23.458Z,0.93
2019-03-05T00:42:11.088Z,1.20
2019-03-05T00:45:34.596Z,1.67
2019-03-05T00:48:26.538Z,1.10
2019-03-05T00:54:15.699Z,1.20
2019-03-05T00:57:06.378Z,1.00
2019-03-05T00:59:51.106Z,0.85
2019-03-05T01:02:35.540Z,1.12
2019-03-05T01:05:10.754Z,1.60
2019-03-05T01:07:40.167Z,1.30
2019-03-05T01:10:10.922Z,1.00
2019-03-05T01:12:40.489Z,0.95
2019-03-05T01:15:11.016Z,1.45
2019-03-05T01:17:40.708Z,1.27
2019-03-05T01:20:11.826Z,1.60
2019-03-05T01:22:41.337Z,1.47
2019-03-05T01:25:28.540Z,1.20
2019-03-05T01:27:58.018Z,1.50
2019-03-05T01:31:02.199Z,0.95
2019-03-05T01:33:34.395Z,0.98
2019-03-05T01:36:11.487Z,1.35
2019-03-05T01:38:45.208Z,1.22
2019-03-05T01:41:14.587Z,1.20
2019-03-05T01:43:43.999Z,1.07
2019-03-05T01:46:13.366Z,1.15
2019-03-05T01:48:42.780Z,0.90
2019-03-05T01:51:12.171Z,1.47
2019-03-05T01:53:41.547Z,0.90
2019-03-05T01:56:11.215Z,1.92
2019-03-05T01:58:41.667Z,1.07
2019-03-05T02:01:11.192Z,1.32
2019-03-05T02:03:40.823Z,1.22
2019-03-05T02:06:10.274Z,1.75
2019-03-05T02:08:39.663Z,1.47
2019-03-05T02:11:09.680Z,0.80
2019-03-05T02:13:39.066Z,1.30
2019-03-05T02:16:08.465Z,1.40
2019-03-05T02:18:37.847Z,1.60
2019-03-05T02:21:07.238Z,1.15
2019-03-05T02:23:58.896Z,1.30
2019-03-05T02:27:01.956Z,1.80
2019-03-05T02:29:35.475Z,1.60
2019-03-05T02:32:29.469Z,1.52
2019-03-05T02:35:02.113Z,1.40
2019-03-05T02:37:43.709Z,1.60
2019-03-05T02:40:24.784Z,1.00
2019-03-05T02:42:57.248Z,1.32
2019-03-05T02:45:38.351Z,1.30
2019-03-05T02:48:18.964Z,1.30
2019-03-05T02:54:20.627Z,1.77
2019-03-05T02:57:09.887Z,1.27
2019-03-05T02:59:39.512Z,1.15
2019-03-05T03:02:19.808Z,1.22
2019-03-05T03:04:51.079Z,0.98
2019-03-05T03:07:20.619Z,1.12
2019-03-05T03:09:53.086Z,1.30
2019-03-05T03:12:23.611Z,1.47
2019-03-05T03:14:53.012Z,1.20
2019-03-05T03:17:22.476Z,1.07
2019-03-05T03:19:51.877Z,1.02
2019-03-05T03:22:21.340Z,1.27
2019-03-05T03:24:50.707Z,0.88
2019-03-05T03:27:20.091Z,1.27
2019-03-05T03:29:49.498Z,1.37
2019-03-05T03:32:19.068Z,1.10
2019-03-05T03:34:48.480Z,1.75
2019-03-05T03:37:17.859Z,1.10
2019-03-05T03:39:47.246Z,1.30
2019-03-05T03:42:16.625Z,0.93
2019-03-05T03:44:46.011Z,1.07
2019-03-05T03:47:15.383Z,1.30
2019-03-05T03:49:44.773Z,1.02
2019-03-05T03:52:14.313Z,0.90
2019-03-05T03:54:43.725Z,1.12
2019-03-05T03:57:13.673Z,1.30
2019-03-05T03:59:43.152Z,1.17
2019-03-05T04:02:12.595Z,1.17
2019-03-05T04:04:42.070Z,1.12
2019-03-05T04:07:11.598Z,1.30
2019-03-05T04:09:41.057Z,1.20
2019-03-05T04:12:10.448Z,1.20
2019-03-05T04:14:39.912Z,1.02
2019-03-05T04:17:09.332Z,1.15
2019-03-05T04:19:42.044Z,1.07
2019-03-05T04:22:12.372Z,1.12
2019-03-05T04:24:41.844Z,1.20
2019-03-05T04:27:11.295Z,1.30
2019-03-05T04:29:40.691Z,0.90
2019-03-05T04:32:10.075Z,0.98
2019-03-05T04:34:39.459Z,1.30
2019-03-05T04:37:08.851Z,1.00
2019-03-05T04:39:39.369Z,1.25
2019-03-05T04:42:08.807Z,1.00
2019-03-05T04:44:40.047Z,0.98
2019-03-05T04:47:23.579Z,1.17
2019-03-05T04:49:54.619Z,0.80
2019-03-05T04:52:24.482Z,0.60
2019-03-05T04:54:53.888Z,0.68
2019-03-05T04:57:23.289Z,1.10
2019-03-05T04:59:52.679Z,1.52
2019-03-05T05:02:22.119Z,1.05
2019-03-05T05:04:51.583Z,0.78
2019-03-05T05:07:20.963Z,1.10
2019-03-05T05:09:50.369Z,1.42
2019-03-05T05:12:19.797Z,0.90
2019-03-05T05:14:49.271Z,0.80
2019-03-05T05:17:18.676Z,0.60
2019-03-05T05:19:48.087Z,0.80
2019-03-05T05:22:18.447Z,0.75
2019-03-05T05:24:47.834Z,0.70
2019-03-05T05:27:17.219Z,0.78
2019-03-05T05:29:46.603Z,0.90
2019-03-05T05:32:16.187Z,0.60
2019-03-05T05:34:45.573Z,0.80
2019-03-05T05:37:15.106Z,1.30
2019-03-05T05:40:19.988Z,0.70
2019-03-05T05:42:49.374Z,0.70
2019-03-05T05:45:21.639Z,1.10
2019-03-05T05:47:51.022Z,0.72
2019-03-05T05:50:20.487Z,0.62
2019-03-05T05:52:50.939Z,0.82
2019-03-05T05:55:20.326Z,0.68
2019-03-05T05:57:49.703Z,0.90
2019-03-05T06:00:19.355Z,0.80
2019-03-05T06:02:48.738Z,0.72
2019-03-05T06:05:18.205Z,0.60
2019-03-05T06:07:47.649Z,1.07
2019-03-05T06:10:17.108Z,0.93
2019-03-05T06:12:46.490Z,1.00
2019-03-05T06:15:16.346Z,1.20
2019-03-05T06:17:45.802Z,1.10
2019-03-05T06:20:16.523Z,1.22
2019-03-05T06:22:45.923Z,1.10
2019-03-05T06:25:15.776Z,1.12
2019-03-05T06:27:45.172Z,1.07
2019-03-05T06:30:37.925Z,0.95
2019-03-05T06:33:07.331Z,1.72
2019-03-05T06:35:37.671Z,0.80
2019-03-05T06:38:07.172Z,1.05
2019-03-05T06:40:36.589Z,1.02
2019-03-05T06:43:06.151Z,1.62
2019-03-05T06:45:35.746Z,1.40
2019-03-05T06:48:05.691Z,1.25
2019-03-05T06:50:35.163Z,1.37
2019-03-05T06:53:04.627Z,1.10
2019-03-05T06:55:34.479Z,1.47
2019-03-05T06:58:04.191Z,1.65
2019-03-05T07:00:43.078Z,1.15
2019-03-05T07:03:31.922Z,1.20
2019-03-05T07:06:38.053Z,1.20
2019-03-05T07:09:28.949Z,1.85
2019-03-05T07:12:10.145Z,1.30
2019-03-05T07:15:16.289Z,1.10
2019-03-05T07:18:07.043Z,1.27
2019-03-05T07:20:45.303Z,1.02
2019-03-05T07:23:34.780Z,1.40
2019-03-05T07:26:04.367Z,1.55
2019-03-05T07:28:33.967Z,1.40
2019-03-05T07:31:04.203Z,1.27
2019-03-05T07:33:33.703Z,1.15
2019-03-05T07:36:03.314Z,1.35
2019-03-05T07:38:33.968Z,1.20
2019-03-05T07:41:03.482Z,1.00
2019-03-05T07:43:36.376Z,1.27
2019-03-05T07:46:04.383Z,1.17
2019-03-05T07:48:33.773Z,1.25
2019-03-05T07:51:03.154Z,1.10
2019-03-05T07:53:32.653Z,1.05
2019-03-05T07:56:02.038Z,1.70
2019-03-05T07:58:31.726Z,1.17
2019-03-05T08:01:01.561Z,1.10
2019-03-05T08:03:32.059Z,1.22
2019-03-05T08:06:01.657Z,1.52
2019-03-05T08:09:09.705Z,1.50
2019-03-05T08:11:39.256Z,1.32
2019-03-05T08:14:31.569Z,1.60
2019-03-05T08:17:01.201Z,1.67
2019-03-05T08:19:32.349Z,1.30
2019-03-05T08:22:04.315Z,1.20
2019-03-05T08:24:33.705Z,1.37
2019-03-05T08:27:06.019Z,1.17
2019-03-05T08:29:35.409Z,0.88
2019-03-05T08:32:05.211Z,1.30
2019-03-05T08:34:34.587Z,1.30
2019-03-05T08:37:04.166Z,1.17
2019-03-05T08:39:33.736Z,1.27
2019-03-05T08:42:03.202Z,1.37
2019-03-05T08:44:33.479Z,1.30
2019-03-05T08:47:02.923Z,1.60
2019-03-05T08:49:32.359Z,1.55
2019-03-05T08:52:01.763Z,1.32
2019-03-05T08:54:31.275Z,1.37
2019-03-05T08:57:00.662Z,1.27
2019-03-05T08:59:32.562Z,1.00
2019-03-05T09:02:01.142Z,1.27
2019-03-05T09:04:30.587Z,1.00
2019-03-05T09:07:00.039Z,1.00
2019-03-05T09:09:29.432Z,0.90
2019-03-05T09:11:59.218Z,1.37
2019-03-05T09:14:28.619Z,1.30
2019-03-05T09:16:58.003Z,1.42
2019-03-05T09:19:27.374Z,1.00
2019-03-05T09:21:56.779Z,1.05
2019-03-05T09:24:26.162Z,1.40
2019-03-05T09:26:55.725Z,0.95
2019-03-05T09:29:25.177Z,1.00
2019-03-05T09:31:54.660Z,1.17
2019-03-05T09:34:24.273Z,1.00
2019-03-05T09:36:53.660Z,0.93
2019-03-05T09:39:23.040Z,1.17
2019-03-05T09:41:52.615Z,0.90
2019-03-05T09:44:21.994Z,1.30
2019-03-05T09:46:51.391Z,1.02
2019-03-05T09:49:20.780Z,0.85
2019-03-05T09:51:50.173Z,1.15
2019-03-05T09:54:19.571Z,1.22
2019-03-05T09:56:48.967Z,0.98
2019-03-05T09:59:19.459Z,1.70
2019-03-05T10:01:50.571Z,1.37
2019-03-05T10:04:20.029Z,1.57
2019-03-05T10:06:49.566Z,1.52
2019-03-05T10:09:19.467Z,3.58
2019-03-05T10:11:56.395Z,1.67
2019-03-05T10:14:20.018Z,1.00
2019-03-05T10:16:49.398Z,1.40
2019-03-05T10:19:18.958Z,1.45
2019-03-05T10:21:48.559Z,1.70
2019-03-05T10:24:18.086Z,1.10
2019-03-05T10:26:47.558Z,0.90
2019-03-05T10:29:17.167Z,1.40
2019-03-05T10:31:46.719Z,1.05
2019-03-05T10:34:16.104Z,1.00
2019-03-05T10:36:45.471Z,0.98
2019-03-05T10:39:18.021Z,1.37
2019-03-05T10:41:47.472Z,0.80
2019-03-05T10:44:16.935Z,0.90
2019-03-05T10:46:47.333Z,0.88
2019-03-05T10:49:16.721Z,1.00
2019-03-05T10:51:46.251Z,1.10
2019-03-05T10:54:15.864Z,1.15
2019-03-05T10:56:45.303Z,0.90
2019-03-05T10:59:15.007Z,0.90
2019-03-05T11:01:46.854Z,0.90
2019-03-05T11:04:16.402Z,0.90
2019-03-05T11:06:45.961Z,0.98
2019-03-05T11:09:18.685Z,1.10
2019-03-05T11:11:48.154Z,1.05
2019-03-05T11:14:17.540Z,0.82
2019-03-05T11:16:47.103Z,0.82
2019-03-05T11:19:17.708Z,0.98
2019-03-05T11:21:47.212Z,0.80
2019-03-05T11:24:16.603Z,1.32
2019-03-05T11:26:46.052Z,0.88
2019-03-05T11:29:15.451Z,1.10
2019-03-05T11:31:44.943Z,1.37
2019-03-05T11:34:14.352Z,1.02
2019-03-05T11:36:43.874Z,0.75
2019-03-05T11:39:13.438Z,0.90
2019-03-05T11:41:42.904Z,0.80
2019-03-05T11:44:12.295Z,1.22
2019-03-05T11:46:41.692Z,0.98
2019-03-05T11:49:11.244Z,1.00
2019-03-05T11:51:40.667Z,1.00
2019-03-05T11:54:10.191Z,0.95
2019-03-05T11:56:39.658Z,1.35
2019-03-05T11:59:09.063Z,1.00
2019-03-05T12:01:38.530Z,0.95
2019-03-05T12:04:07.935Z,1.10
2019-03-05T12:06:37.436Z,0.95
2019-03-05T12:09:09.463Z,0.82
2019-03-05T12:11:39.162Z,0.85
2019-03-05T12:14:08.569Z,1.60
2019-03-05T12:16:38.030Z,1.17
2019-03-05T12:19:07.499Z,0.82
2019-03-05T12:21:36.976Z,0.88
2019-03-05T12:24:06.442Z,0.80
2019-03-05T12:26:35.895Z,1.17
2019-03-05T12:29:05.291Z,0.75
2019-03-05T12:31:34.662Z,0.90
2019-03-05T12:34:04.200Z,0.80
2019-03-05T12:36:33.575Z,1.17
2019-03-05T12:39:02.953Z,0.88
2019-03-05T12:41:33.954Z,1.35
2019-03-05T12:44:05.316Z,1.30
2019-03-05T12:46:48.428Z,1.22
2019-03-05T12:49:17.832Z,0.90
2019-03-05T12:51:47.297Z,1.05
2019-03-05T12:54:16.679Z,1.22
2019-03-05T12:56:46.143Z,1.45
2019-03-05T12:59:15.596Z,1.60
2019-03-05T13:01:44.981Z,1.10
2019-03-05T13:04:14.468Z,1.15
2019-03-05T13:06:43.881Z,1.20
2019-03-05T13:09:17.879Z,1.05
2019-03-05T13:11:49.913Z,1.37
2019-03-05T13:14:18.639Z,1.40
2019-03-05T13:16:48.115Z,1.92
2019-03-05T13:19:17.501Z,1.75
2019-03-05T13:21:48.542Z,2.00
2019-03-05T13:24:17.989Z,1.80
2019-03-05T13:26:47.455Z,1.37
2019-03-05T13:29:19.288Z,1.92
2019-03-05T13:31:48.082Z,1.30
2019-03-05T13:34:17.950Z,1.35
2019-03-05T13:36:50.616Z,1.65
2019-03-05T13:39:38.795Z,1.15
2019-03-05T13:42:08.223Z,1.65
2019-03-05T13:44:37.671Z,1.32
2019-03-05T13:47:07.101Z,1.47
2019-03-05T13:49:57.601Z,1.32
2019-03-05T13:52:32.167Z,1.55
2019-03-05T13:55:23.582Z,1.10
2019-03-05T13:58:11.911Z,1.00
2019-03-05T14:00:41.459Z,1.25
2019-03-05T14:03:13.775Z,1.85
2019-03-05T14:05:46.231Z,0.95
2019-03-05T14:08:37.317Z,1.22
2019-03-05T14:11:06.884Z,1.10
2019-03-05T14:13:36.357Z,1.32
2019-03-05T14:16:07.952Z,1.50
2019-03-05T14:18:37.436Z,1.20
2019-03-05T14:21:06.891Z,1.37
2019-03-05T14:23:36.481Z,1.90
2019-03-05T14:26:06.154Z,1.12
2019-03-05T14:28:35.681Z,1.00
2019-03-05T14:31:05.205Z,1.52
2019-03-05T14:33:34.647Z,1.10
2019-03-05T14:36:04.062Z,1.30
2019-03-05T14:38:34.240Z,1.17
2019-03-05T14:41:03.651Z,1.60
2019-03-05T14:43:33.127Z,1.17
2019-03-05T14:46:02.694Z,1.10
2019-03-05T14:48:32.161Z,1.40
2019-03-05T14:51:01.600Z,1.40
2019-03-05T14:53:31.048Z,1.20
2019-03-05T14:56:00.426Z,1.72
2019-03-05T14:58:29.838Z,1.92
2019-03-05T15:00:59.317Z,1.62
2019-03-05T15:03:28.870Z,2.02
2019-03-05T15:05:58.566Z,1.60
2019-03-05T15:08:28.011Z,1.10
2019-03-05T15:10:57.497Z,1.45
2019-03-05T15:13:26.944Z,1.60
2019-03-05T15:15:56.459Z,1.32
2019-03-05T15:18:26.013Z,1.75
2019-03-05T15:20:55.403Z,1.80
2019-03-05T15:23:24.811Z,1.45
2019-03-05T15:25:54.221Z,1.12
2019-03-05T15:28:23.622Z,1.40
2019-03-05T15:30:53.049Z,3.10
2019-03-05T15:33:22.432Z,1.47
2019-03-05T15:35:51.939Z,1.22
2019-03-05T15:38:21.373Z,1.35
2019-03-05T15:40:50.859Z,1.10
2019-03-05T15:43:20.338Z,1.20
2019-03-05T15:45:49.812Z,1.37
2019-03-05T15:48:19.295Z,1.30
2019-03-05T15:50:48.734Z,1.67
2019-03-05T15:53:18.211Z,1.20
2019-03-05T15:55:47.660Z,1.12
2019-03-05T15:58:17.061Z,1.35
2019-03-05T16:00:46.574Z,1.42
2019-03-05T16:03:16.103Z,1.37
2019-03-05T16:05:45.588Z,1.35
2019-03-05T16:08:15.086Z,1.72
2019-03-05T16:10:44.568Z,1.27
2019-03-05T16:13:15.357Z,2.12
2019-03-05T16:15:45.631Z,1.35
2019-03-05T16:18:16.563Z,1.55
2019-03-05T16:20:46.028Z,1.60
2019-03-05T16:23:15.499Z,1.42
2019-03-05T16:25:46.167Z,1.40
2019-03-05T16:28:17.706Z,1.67
2019-03-05T16:31:00.828Z,1.20
2019-03-05T16:33:49.536Z,1.55
2019-03-05T16:36:25.473Z,1.40
2019-03-05T16:39:02.123Z,1.35
2019-03-05T16:41:46.866Z,2.17
2019-03-05T16:44:36.586Z,1.45
2019-03-05T16:47:14.096Z,1.72
2019-03-05T16:49:45.184Z,1.27
2019-03-05T16:52:16.301Z,1.52
2019-03-05T16:55:00.339Z,1.67
2019-03-05T16:57:31.591Z,1.30
2019-03-05T17:00:14.933Z,1.30
2019-03-05T17:03:17.594Z,1.50
2019-03-05T17:05:54.322Z,2.00
2019-03-05T17:08:34.777Z,1.47
2019-03-05T17:11:23.780Z,1.35
2019-03-05T17:13:53.436Z,1.42
2019-03-05T17:16:23.326Z,1.67
2019-03-05T17:18:53.087Z,1.62
2019-03-05T17:21:41.989Z,1.55
2019-03-05T17:24:11.603Z,1.67
2019-03-05T17:26:41.261Z,1.35
2019-03-05T17:29:10.684Z,1.40
2019-03-05T17:31:40.519Z,1.82
2019-03-05T17:34:11.040Z,1.70
2019-03-05T17:36:41.212Z,2.05
2019-03-05T17:39:13.905Z,1.47
2019-03-05T17:41:44.276Z,1.90
2019-03-05T17:44:14.064Z,2.30
2019-03-05T17:46:43.704Z,1.80
2019-03-05T17:49:13.380Z,1.60
2019-03-05T17:51:43.120Z,1.70
2019-03-05T17:54:13.670Z,2.08
2019-03-05T17:56:43.254Z,2.77
2019-03-05T17:59:13.004Z,2.60
2019-03-05T18:01:42.739Z,2.05
2019-03-05T18:04:12.203Z,2.40
2019-03-05T18:06:41.666Z,2.08
2019-03-05T18:09:11.523Z,1.87
2019-03-05T18:11:42.537Z,3.62
2019-03-05T18:14:12.249Z,2.90
2019-03-05T18:16:42.237Z,2.60
2019-03-05T18:19:11.893Z,2.85
2019-03-05T18:21:41.853Z,2.85
2019-03-05T18:24:11.306Z,2.35
2019-03-05T18:26:41.060Z,2.80
2019-03-05T18:29:11.983Z,3.35
2019-03-05T18:31:41.452Z,2.17
2019-03-05T18:34:11.116Z,3.45
2019-03-05T18:36:41.677Z,2.27
2019-03-05T18:39:12.712Z,2.10
2019-03-05T18:41:43.252Z,2.60
2019-03-05T18:44:12.934Z,2.72
2019-03-05T18:46:42.553Z,2.90
2019-03-05T18:49:12.092Z,2.22
2019-03-05T18:51:41.575Z,2.37
2019-03-05T18:54:11.183Z,2.67
2019-03-05T18:56:40.849Z,2.10
2019-03-05T18:59:10.284Z,2.40
2019-03-05T19:01:39.676Z,1.92
2019-03-05T19:04:09.069Z,2.50
2019-03-05T19:06:38.456Z,2.10
2019-03-05T19:09:07.983Z,2.10
2019-03-05T19:11:39.147Z,2.02
2019-03-05T19:14:08.897Z,2.22
2019-03-05T19:16:39.489Z,1.62
2019-03-05T19:19:09.344Z,1.90
2019-03-05T19:21:38.715Z,1.70
2019-03-05T19:24:08.124Z,2.27
2019-03-05T19:26:37.580Z,2.17
2019-03-05T19:29:07.060Z,1.85
2019-03-05T19:31:36.628Z,2.27
2019-03-05T19:34:06.101Z,1.85
2019-03-05T19:36:35.578Z,2.35
2019-03-05T19:39:06.676Z,1.85
2019-03-05T19:41:37.695Z,1.30
2019-03-05T19:44:07.095Z,1.77
2019-03-05T19:46:36.500Z,1.22
2019-03-05T19:49:18.020Z,1.77
2019-03-05T19:51:47.413Z,1.90
2019-03-05T19:54:16.900Z,1.85
2019-03-05T19:57:07.579Z,1.98
2019-03-05T19:59:36.969Z,1.90
2019-03-05T20:02:06.739Z,1.70
2019-03-05T20:04:36.270Z,1.72
2019-03-05T20:07:12.329Z,2.05
2019-03-05T20:09:41.722Z,2.12
2019-03-05T20:12:11.208Z,2.22
2019-03-05T20:14:40.792Z,1.90
2019-03-05T20:17:10.356Z,1.95
2019-03-05T20:19:39.826Z,2.30
2019-03-05T20:22:09.298Z,1.98
2019-03-05T20:24:38.767Z,1.72
2019-03-05T20:27:15.847Z,2.58
2019-03-05T20:29:39.540Z,2.65
2019-03-05T20:32:09.157Z,2.83
2019-03-05T20:34:38.782Z,4.78
2019-03-05T20:37:08.276Z,2.77
2019-03-05T20:39:37.901Z,2.75
2019-03-05T20:42:07.694Z,2.65
2019-03-05T20:44:37.415Z,2.90
2019-03-05T20:47:07.348Z,2.35
2019-03-05T20:49:36.971Z,2.30
2019-03-05T20:52:06.479Z,2.67
2019-03-05T20:54:37.036Z,2.75
2019-03-05T20:57:06.873Z,2.45
2019-03-05T20:59:36.624Z,2.20
2019-03-05T21:02:06.243Z,2.62
2019-03-05T21:04:35.706Z,2.83
2019-03-05T21:07:05.315Z,2.65
2019-03-05T21:09:34.951Z,2.30
2019-03-05T21:12:04.863Z,2.27
2019-03-05T21:14:34.274Z,2.12
2019-03-05T21:17:03.806Z,2.60
2019-03-05T21:19:33.257Z,2.55
2019-03-05T21:22:02.752Z,2.87
2019-03-05T21:24:32.231Z,2.60
2019-03-05T21:27:01.603Z,2.77
2019-03-05T21:29:31.120Z,2.77
2019-03-05T21:32:00.730Z,2.92
2019-03-05T21:34:30.654Z,3.25
2019-03-05T21:37:00.128Z,2.70
2019-03-05T21:39:29.711Z,3.52
2019-03-05T21:41:59.359Z,3.17
2019-03-05T21:44:28.827Z,3.55
2019-03-05T21:46:58.431Z,3.00
2019-03-05T21:49:28.895Z,3.25
2019-03-05T21:51:58.427Z,3.58
2019-03-05T21:54:28.087Z,3.33
2019-03-05T21:56:57.719Z,4.15
2019-03-05T21:59:27.130Z,3.70
2019-03-05T22:01:56.676Z,3.15
2019-03-05T22:04:26.243Z,3.17
2019-03-05T22:06:55.680Z,3.30
2019-03-05T22:09:25.158Z,2.90
2019-03-05T22:11:54.723Z,3.05
2019-03-05T22:14:24.287Z,3.05
2019-03-05T22:16:53.794Z,3.37
2019-03-05T22:19:23.255Z,3.02
2019-03-05T22:21:53.039Z,3.42
2019-03-05T22:24:23.568Z,4.62
2019-03-05T22:26:53.103Z,3.40
2019-03-05T22:29:22.633Z,2.75
2019-03-05T22:31:53.097Z,3.60
2019-03-05T22:34:22.871Z,4.08
2019-03-05T22:36:52.527Z,3.35
2019-03-05T22:39:22.302Z,3.30
2019-03-05T22:41:51.771Z,2.40
2019-03-05T22:44:21.242Z,3.20
2019-03-05T22:46:50.767Z,3.75
2019-03-05T22:49:20.183Z,3.27
2019-03-05T22:51:49.736Z,2.80
2019-03-05T22:54:19.413Z,3.02
2019-03-05T22:56:51.076Z,3.20
2019-03-05T22:59:20.473Z,3.37
2019-03-05T23:01:49.926Z,3.72
2019-03-05T23:04:20.435Z,2.37
2019-03-05T23:07:09.561Z,3.52
2019-03-05T23:09:39.111Z,2.90
2019-03-05T23:12:09.043Z,3.15
2019-03-05T23:14:38.950Z,2.45
2019-03-05T23:17:08.572Z,2.72
2019-03-05T23:19:38.072Z,3.27
2019-03-05T23:22:07.809Z,2.72
2019-03-05T23:24:37.413Z,2.72
2019-03-05T23:27:07.784Z,2.87
2019-03-05T23:29:41.797Z,2.90
2019-03-05T23:32:11.987Z,2.50
2019-03-05T23:34:42.562Z,2.42
2019-03-05T23:37:12.120Z,4.08
2019-03-05T23:39:41.913Z,2.33
2019-03-05T23:42:11.370Z,2.47
2019-03-05T23:44:40.847Z,2.52
2019-03-05T23:47:10.481Z,2.02
2019-03-05T23:49:40.000Z,2.10
2019-03-05T23:52:09.754Z,3.08
2019-03-05T23:54:39.247Z,2.58
2019-03-05T23:57:08.680Z,2.12
2019-03-05T23:59:38.215Z,2.60
